sensor_id;sensor_type;location;lat;lon;timestamp;P1;durP1;ratioP1;P2;durP2;ratioP2
22677;SDS011;26259;50.214;18.620;2022-07-23T00:00:35;21.73;;;18.30;;
22677;SDS011;26259;50.214;18.620;2022-07-23T00:03:00;22.63;;;20.17;;
22677;SDS011;26259;50.214;18.620;2022-07-23T00:05:26;21.77;;;19.47;;
22677;SDS011;26259;50.214;18.620;2022-07-23T00:07:52;22.00;;;19.47;;
22677;SDS011;26259;50.214;18.620;2022-07-23T00:10:17;21.17;;;18.70;;
22677;SDS011;26259;50.214;18.620;2022-07-23T00:12:43;20.93;;;18.73;;
22677;SDS011;26259;50.214;18.620;2022-07-23T00:15:09;23.73;;;18.67;;
22677;SDS011;26259;50.214;18.620;2022-07-23T00:17:35;20.20;;;18.20;;
22677;SDS011;26259;50.214;18.620;2022-07-23T00:20:01;22.23;;;18.17;;
22677;SDS011;26259;50.214;18.620;2022-07-23T00:22:26;21.73;;;19.43;;
22677;SDS011;26259;50.214;18.620;2022-07-23T00:24:54;24.40;;;19.93;;
22677;SDS011;26259;50.214;18.620;2022-07-23T00:27:20;23.17;;;19.90;;
22677;SDS011;26259;50.214;18.620;2022-07-23T00:29:45;23.27;;;20.87;;
22677;SDS011;26259;50.214;18.620;2022-07-23T00:32:11;26.17;;;18.87;;
22677;SDS011;26259;50.214;18.620;2022-07-23T00:34:36;24.63;;;19.70;;
22677;SDS011;26259;50.214;18.620;2022-07-23T00:37:02;20.77;;;18.57;;
22677;SDS011;26259;50.214;18.620;2022-07-23T00:39:28;25.40;;;19.47;;
22677;SDS011;26259;50.214;18.620;2022-07-23T00:41:53;25.27;;;19.83;;
22677;SDS011;26259;50.214;18.620;2022-07-23T00:44:20;26.27;;;18.37;;
22677;SDS011;26259;50.214;18.620;2022-07-23T00:46:53;26.13;;;19.60;;
22677;SDS011;26259;50.214;18.620;2022-07-23T00:49:21;23.43;;;19.73;;
22677;SDS011;26259;50.214;18.620;2022-07-23T00:51:51;21.87;;;19.47;;
22677;SDS011;26259;50.214;18.620;2022-07-23T00:54:17;22.37;;;19.63;;
22677;SDS011;26259;50.214;18.620;2022-07-23T00:56:44;20.87;;;18.37;;
22677;SDS011;26259;50.214;18.620;2022-07-23T00:59:11;24.07;;;18.80;;
22677;SDS011;26259;50.214;18.620;2022-07-23T01:01:37;22.27;;;19.07;;
22677;SDS011;26259;50.214;18.620;2022-07-23T01:04:03;25.10;;;20.10;;
22677;SDS011;26259;50.214;18.620;2022-07-23T01:06:30;22.13;;;19.33;;
22677;SDS011;26259;50.214;18.620;2022-07-23T01:09:00;22.73;;;18.93;;
22677;SDS011;26259;50.214;18.620;2022-07-23T01:11:26;23.90;;;18.33;;
22677;SDS011;26259;50.214;18.620;2022-07-23T01:13:52;20.33;;;18.23;;
22677;SDS011;26259;50.214;18.620;2022-07-23T01:16:18;21.00;;;18.73;;
22677;SDS011;26259;50.214;18.620;2022-07-23T01:18:44;23.93;;;19.10;;
22677;SDS011;26259;50.214;18.620;2022-07-23T01:21:10;22.77;;;20.37;;
22677;SDS011;26259;50.214;18.620;2022-07-23T01:23:38;21.57;;;19.27;;
22677;SDS011;26259;50.214;18.620;2022-07-23T01:26:03;24.50;;;20.00;;
22677;SDS011;26259;50.214;18.620;2022-07-23T01:28:29;25.00;;;21.23;;
22677;SDS011;26259;50.214;18.620;2022-07-23T01:30:55;21.90;;;19.70;;
22677;SDS011;26259;50.214;18.620;2022-07-23T01:33:20;25.70;;;20.27;;
22677;SDS011;26259;50.214;18.620;2022-07-23T01:35:46;22.57;;;20.23;;
22677;SDS011;26259;50.214;18.620;2022-07-23T01:38:11;22.63;;;20.17;;
22677;SDS011;26259;50.214;18.620;2022-07-23T01:40:37;22.93;;;20.57;;
22677;SDS011;26259;50.214;18.620;2022-07-23T01:43:03;24.67;;;20.20;;
22677;SDS011;26259;50.214;18.620;2022-07-23T01:45:28;24.90;;;20.83;;
22677;SDS011;26259;50.214;18.620;2022-07-23T01:47:54;26.20;;;21.03;;
22677;SDS011;26259;50.214;18.620;2022-07-23T01:50:20;23.23;;;20.50;;
22677;SDS011;26259;50.214;18.620;2022-07-23T01:52:45;24.03;;;20.27;;
22677;SDS011;26259;50.214;18.620;2022-07-23T01:55:11;25.40;;;19.80;;
22677;SDS011;26259;50.214;18.620;2022-07-23T01:57:36;24.47;;;19.80;;
22677;SDS011;26259;50.214;18.620;2022-07-23T02:00:03;24.23;;;20.73;;
22677;SDS011;26259;50.214;18.620;2022-07-23T02:02:29;23.67;;;20.70;;
22677;SDS011;26259;50.214;18.620;2022-07-23T02:04:54;23.57;;;20.87;;
22677;SDS011;26259;50.214;18.620;2022-07-23T02:07:20;27.67;;;21.03;;
22677;SDS011;26259;50.214;18.620;2022-07-23T02:09:45;22.90;;;20.23;;
22677;SDS011;26259;50.214;18.620;2022-07-23T02:12:11;25.50;;;20.30;;
22677;SDS011;26259;50.214;18.620;2022-07-23T02:14:37;22.40;;;20.07;;
22677;SDS011;26259;50.214;18.620;2022-07-23T02:17:02;23.17;;;19.93;;
22677;SDS011;26259;50.214;18.620;2022-07-23T02:19:28;23.30;;;20.20;;
22677;SDS011;26259;50.214;18.620;2022-07-23T02:21:54;23.17;;;19.50;;
22677;SDS011;26259;50.214;18.620;2022-07-23T02:24:19;22.80;;;19.70;;
22677;SDS011;26259;50.214;18.620;2022-07-23T02:26:45;23.07;;;20.27;;
22677;SDS011;26259;50.214;18.620;2022-07-23T02:29:11;22.97;;;19.80;;
22677;SDS011;26259;50.214;18.620;2022-07-23T02:31:37;25.07;;;19.90;;
22677;SDS011;26259;50.214;18.620;2022-07-23T02:34:03;23.50;;;20.47;;
22677;SDS011;26259;50.214;18.620;2022-07-23T02:36:28;23.73;;;19.93;;
22677;SDS011;26259;50.214;18.620;2022-07-23T02:38:54;22.57;;;20.27;;
22677;SDS011;26259;50.214;18.620;2022-07-23T02:41:20;24.07;;;20.27;;
22677;SDS011;26259;50.214;18.620;2022-07-23T02:43:46;22.57;;;20.17;;
22677;SDS011;26259;50.214;18.620;2022-07-23T02:46:11;23.93;;;19.97;;
22677;SDS011;26259;50.214;18.620;2022-07-23T02:48:37;25.10;;;20.73;;
22677;SDS011;26259;50.214;18.620;2022-07-23T02:51:03;22.60;;;20.37;;
22677;SDS011;26259;50.214;18.620;2022-07-23T02:53:28;23.17;;;19.60;;
22677;SDS011;26259;50.214;18.620;2022-07-23T02:55:54;27.57;;;21.30;;
22677;SDS011;26259;50.214;18.620;2022-07-23T02:58:19;24.07;;;19.90;;
22677;SDS011;26259;50.214;18.620;2022-07-23T03:00:46;23.27;;;20.87;;
22677;SDS011;26259;50.214;18.620;2022-07-23T03:03:12;25.77;;;21.83;;
22677;SDS011;26259;50.214;18.620;2022-07-23T03:05:37;23.90;;;21.40;;
22677;SDS011;26259;50.214;18.620;2022-07-23T03:08:03;23.97;;;21.47;;
22677;SDS011;26259;50.214;18.620;2022-07-23T03:10:29;24.53;;;21.00;;
22677;SDS011;26259;50.214;18.620;2022-07-23T03:12:54;23.57;;;20.57;;
22677;SDS011;26259;50.214;18.620;2022-07-23T03:15:20;21.97;;;19.73;;
22677;SDS011;26259;50.214;18.620;2022-07-23T03:17:46;22.17;;;19.67;;
22677;SDS011;26259;50.214;18.620;2022-07-23T03:20:11;22.83;;;18.53;;
22677;SDS011;26259;50.214;18.620;2022-07-23T03:22:37;24.90;;;20.77;;
22677;SDS011;26259;50.214;18.620;2022-07-23T03:25:02;25.57;;;19.23;;
22677;SDS011;26259;50.214;18.620;2022-07-23T03:27:29;21.37;;;18.10;;
22677;SDS011;26259;50.214;18.620;2022-07-23T03:29:56;25.70;;;19.33;;
22677;SDS011;26259;50.214;18.620;2022-07-23T03:32:24;20.40;;;18.30;;
22677;SDS011;26259;50.214;18.620;2022-07-23T03:34:50;19.73;;;17.67;;
22677;SDS011;26259;50.214;18.620;2022-07-23T03:37:16;18.27;;;15.80;;
22677;SDS011;26259;50.214;18.620;2022-07-23T03:39:43;23.77;;;17.27;;
22677;SDS011;26259;50.214;18.620;2022-07-23T03:42:09;30.40;;;17.90;;
22677;SDS011;26259;50.214;18.620;2022-07-23T03:44:34;20.80;;;16.40;;
22677;SDS011;26259;50.214;18.620;2022-07-23T03:47:02;19.63;;;16.50;;
22677;SDS011;26259;50.214;18.620;2022-07-23T03:49:28;17.70;;;15.83;;
22677;SDS011;26259;50.214;18.620;2022-07-23T03:51:53;18.00;;;16.20;;
22677;SDS011;26259;50.214;18.620;2022-07-23T03:54:19;18.60;;;15.83;;
22677;SDS011;26259;50.214;18.620;2022-07-23T03:56:45;20.63;;;15.77;;
22677;SDS011;26259;50.214;18.620;2022-07-23T03:59:10;17.07;;;15.27;;
22677;SDS011;26259;50.214;18.620;2022-07-23T04:01:36;17.13;;;14.47;;
22677;SDS011;26259;50.214;18.620;2022-07-23T04:04:02;16.23;;;14.63;;
22677;SDS011;26259;50.214;18.620;2022-07-23T04:06:28;15.93;;;14.23;;
22677;SDS011;26259;50.214;18.620;2022-07-23T04:08:54;15.83;;;14.20;;
22677;SDS011;26259;50.214;18.620;2022-07-23T04:11:19;16.33;;;13.60;;
22677;SDS011;26259;50.214;18.620;2022-07-23T04:13:45;14.77;;;13.27;;
22677;SDS011;26259;50.214;18.620;2022-07-23T04:16:11;14.67;;;13.17;;
22677;SDS011;26259;50.214;18.620;2022-07-23T04:18:37;16.70;;;12.90;;
22677;SDS011;26259;50.214;18.620;2022-07-23T04:21:02;15.83;;;14.07;;
22677;SDS011;26259;50.214;18.620;2022-07-23T04:23:28;16.47;;;14.53;;
22677;SDS011;26259;50.214;18.620;2022-07-23T04:25:54;14.27;;;12.40;;
22677;SDS011;26259;50.214;18.620;2022-07-23T04:28:19;13.43;;;12.20;;
22677;SDS011;26259;50.214;18.620;2022-07-23T04:30:45;14.33;;;12.83;;
22677;SDS011;26259;50.214;18.620;2022-07-23T04:33:10;13.23;;;11.80;;
22677;SDS011;26259;50.214;18.620;2022-07-23T04:35:36;12.93;;;11.53;;
22677;SDS011;26259;50.214;18.620;2022-07-23T04:38:02;14.63;;;13.03;;
22677;SDS011;26259;50.214;18.620;2022-07-23T04:40:28;13.73;;;11.60;;
22677;SDS011;26259;50.214;18.620;2022-07-23T04:42:54;12.80;;;10.87;;
22677;SDS011;26259;50.214;18.620;2022-07-23T04:45:20;10.77;;;9.67;;
22677;SDS011;26259;50.214;18.620;2022-07-23T04:47:46;11.63;;;10.43;;
22677;SDS011;26259;50.214;18.620;2022-07-23T04:50:12;13.17;;;11.40;;
22677;SDS011;26259;50.214;18.620;2022-07-23T04:52:37;11.17;;;10.07;;
22677;SDS011;26259;50.214;18.620;2022-07-23T04:55:03;13.20;;;10.30;;
22677;SDS011;26259;50.214;18.620;2022-07-23T04:57:29;12.87;;;10.87;;
22677;SDS011;26259;50.214;18.620;2022-07-23T04:59:55;14.87;;;11.90;;
22677;SDS011;26259;50.214;18.620;2022-07-23T05:02:20;18.08;;;13.13;;
22677;SDS011;26259;50.214;18.620;2022-07-23T05:04:46;15.17;;;12.27;;
22677;SDS011;26259;50.214;18.620;2022-07-23T05:07:12;14.60;;;12.83;;
22677;SDS011;26259;50.214;18.620;2022-07-23T05:09:37;14.82;;;12.70;;
22677;SDS011;26259;50.214;18.620;2022-07-23T05:12:03;15.40;;;13.67;;
22677;SDS011;26259;50.214;18.620;2022-07-23T05:14:29;19.10;;;14.37;;
22677;SDS011;26259;50.214;18.620;2022-07-23T05:16:54;17.43;;;14.20;;
22677;SDS011;26259;50.214;18.620;2022-07-23T05:19:20;17.83;;;15.23;;
22677;SDS011;26259;50.214;18.620;2022-07-23T05:21:46;20.53;;;14.80;;
22677;SDS011;26259;50.214;18.620;2022-07-23T05:24:12;18.47;;;15.70;;
22677;SDS011;26259;50.214;18.620;2022-07-23T05:26:37;21.70;;;15.03;;
22677;SDS011;26259;50.214;18.620;2022-07-23T05:29:03;18.40;;;16.30;;
22677;SDS011;26259;50.214;18.620;2022-07-23T05:31:29;18.33;;;15.27;;
22677;SDS011;26259;50.214;18.620;2022-07-23T05:33:54;24.97;;;16.47;;
22677;SDS011;26259;50.214;18.620;2022-07-23T05:36:20;21.87;;;14.53;;
22677;SDS011;26259;50.214;18.620;2022-07-23T05:38:45;21.07;;;16.20;;
22677;SDS011;26259;50.214;18.620;2022-07-23T05:41:11;21.93;;;17.97;;
22677;SDS011;26259;50.214;18.620;2022-07-23T05:43:36;23.13;;;18.47;;
22677;SDS011;26259;50.214;18.620;2022-07-23T05:46:02;31.70;;;21.63;;
22677;SDS011;26259;50.214;18.620;2022-07-23T05:48:28;31.17;;;21.20;;
22677;SDS011;26259;50.214;18.620;2022-07-23T05:50:53;27.50;;;18.60;;
22677;SDS011;26259;50.214;18.620;2022-07-23T05:53:19;25.43;;;18.40;;
22677;SDS011;26259;50.214;18.620;2022-07-23T05:55:44;27.27;;;17.67;;
22677;SDS011;26259;50.214;18.620;2022-07-23T05:58:10;24.97;;;16.67;;
22677;SDS011;26259;50.214;18.620;2022-07-23T06:00:35;27.53;;;18.03;;
22677;SDS011;26259;50.214;18.620;2022-07-23T06:03:01;24.97;;;18.13;;
22677;SDS011;26259;50.214;18.620;2022-07-23T06:05:27;28.60;;;18.33;;
22677;SDS011;26259;50.214;18.620;2022-07-23T06:07:52;24.53;;;18.30;;
22677;SDS011;26259;50.214;18.620;2022-07-23T06:10:19;26.80;;;16.67;;
22677;SDS011;26259;50.214;18.620;2022-07-23T06:12:44;23.47;;;16.60;;
22677;SDS011;26259;50.214;18.620;2022-07-23T06:15:10;28.63;;;18.33;;
22677;SDS011;26259;50.214;18.620;2022-07-23T06:17:36;31.47;;;18.90;;
22677;SDS011;26259;50.214;18.620;2022-07-23T06:20:04;29.50;;;18.17;;
22677;SDS011;26259;50.214;18.620;2022-07-23T06:22:34;40.17;;;19.77;;
22677;SDS011;26259;50.214;18.620;2022-07-23T06:25:00;36.83;;;17.83;;
22677;SDS011;26259;50.214;18.620;2022-07-23T06:27:26;43.72;;;18.70;;
22677;SDS011;26259;50.214;18.620;2022-07-23T06:29:51;38.92;;;19.20;;
22677;SDS011;26259;50.214;18.620;2022-07-23T06:32:17;37.28;;;17.42;;
22677;SDS011;26259;50.214;18.620;2022-07-23T06:34:43;39.13;;;16.27;;
22677;SDS011;26259;50.214;18.620;2022-07-23T06:37:08;35.30;;;17.42;;
22677;SDS011;26259;50.214;18.620;2022-07-23T06:39:34;40.00;;;16.57;;
22677;SDS011;26259;50.214;18.620;2022-07-23T06:41:59;50.83;;;16.47;;
22677;SDS011;26259;50.214;18.620;2022-07-23T06:44:26;32.97;;;15.65;;
22677;SDS011;26259;50.214;18.620;2022-07-23T06:46:52;28.50;;;14.68;;
22677;SDS011;26259;50.214;18.620;2022-07-23T06:49:17;25.77;;;14.85;;
22677;SDS011;26259;50.214;18.620;2022-07-23T06:51:43;38.63;;;15.55;;
22677;SDS011;26259;50.214;18.620;2022-07-23T06:54:08;28.05;;;15.75;;
22677;SDS011;26259;50.214;18.620;2022-07-23T06:56:34;37.20;;;14.88;;
22677;SDS011;26259;50.214;18.620;2022-07-23T06:59:00;57.08;;;16.63;;
22677;SDS011;26259;50.214;18.620;2022-07-23T07:01:25;31.75;;;14.52;;
22677;SDS011;26259;50.214;18.620;2022-07-23T07:03:51;33.03;;;14.55;;
22677;SDS011;26259;50.214;18.620;2022-07-23T07:06:16;24.70;;;14.32;;
22677;SDS011;26259;50.214;18.620;2022-07-23T07:08:42;32.90;;;13.93;;
22677;SDS011;26259;50.214;18.620;2022-07-23T07:11:08;41.88;;;15.05;;
22677;SDS011;26259;50.214;18.620;2022-07-23T07:13:35;33.80;;;13.15;;
22677;SDS011;26259;50.214;18.620;2022-07-23T07:16:01;30.70;;;13.07;;
22677;SDS011;26259;50.214;18.620;2022-07-23T07:18:27;35.15;;;14.25;;
22677;SDS011;26259;50.214;18.620;2022-07-23T07:20:52;29.10;;;12.57;;
22677;SDS011;26259;50.214;18.620;2022-07-23T07:23:18;27.10;;;13.85;;
22677;SDS011;26259;50.214;18.620;2022-07-23T07:25:45;22.98;;;13.10;;
22677;SDS011;26259;50.214;18.620;2022-07-23T07:28:11;19.80;;;11.55;;
22677;SDS011;26259;50.214;18.620;2022-07-23T07:30:37;18.50;;;11.65;;
22677;SDS011;26259;50.214;18.620;2022-07-23T07:33:02;24.35;;;11.73;;
22677;SDS011;26259;50.214;18.620;2022-07-23T07:35:28;19.13;;;11.00;;
22677;SDS011;26259;50.214;18.620;2022-07-23T07:37:54;15.57;;;12.63;;
22677;SDS011;26259;50.214;18.620;2022-07-23T07:40:19;12.75;;;11.07;;
22677;SDS011;26259;50.214;18.620;2022-07-23T07:42:46;24.45;;;12.02;;
22677;SDS011;26259;50.214;18.620;2022-07-23T07:45:16;16.67;;;10.88;;
22677;SDS011;26259;50.214;18.620;2022-07-23T07:47:44;17.17;;;12.73;;
22677;SDS011;26259;50.214;18.620;2022-07-23T07:50:10;15.73;;;11.93;;
22677;SDS011;26259;50.214;18.620;2022-07-23T07:52:35;20.60;;;12.52;;
22677;SDS011;26259;50.214;18.620;2022-07-23T07:55:02;20.42;;;12.20;;
22677;SDS011;26259;50.214;18.620;2022-07-23T07:57:28;19.35;;;12.95;;
22677;SDS011;26259;50.214;18.620;2022-07-23T07:59:54;18.65;;;11.90;;
22677;SDS011;26259;50.214;18.620;2022-07-23T08:02:19;28.73;;;12.43;;
22677;SDS011;26259;50.214;18.620;2022-07-23T08:04:45;19.48;;;11.95;;
22677;SDS011;26259;50.214;18.620;2022-07-23T08:07:10;19.50;;;12.45;;
22677;SDS011;26259;50.214;18.620;2022-07-23T08:09:36;18.55;;;12.38;;
22677;SDS011;26259;50.214;18.620;2022-07-23T08:12:02;21.88;;;11.27;;
22677;SDS011;26259;50.214;18.620;2022-07-23T08:14:27;22.42;;;12.45;;
22677;SDS011;26259;50.214;18.620;2022-07-23T08:16:53;17.25;;;12.55;;
22677;SDS011;26259;50.214;18.620;2022-07-23T08:19:18;21.13;;;12.25;;
22677;SDS011;26259;50.214;18.620;2022-07-23T08:21:44;14.85;;;10.48;;
22677;SDS011;26259;50.214;18.620;2022-07-23T08:24:09;13.98;;;9.73;;
22677;SDS011;26259;50.214;18.620;2022-07-23T08:26:35;13.60;;;9.13;;
22677;SDS011;26259;50.214;18.620;2022-07-23T08:29:01;14.35;;;8.20;;
22677;SDS011;26259;50.214;18.620;2022-07-23T08:31:26;16.10;;;8.32;;
22677;SDS011;26259;50.214;18.620;2022-07-23T08:33:52;9.80;;;6.80;;
22677;SDS011;26259;50.214;18.620;2022-07-23T08:36:17;9.63;;;6.90;;
22677;SDS011;26259;50.214;18.620;2022-07-23T08:38:43;32.72;;;8.77;;
22677;SDS011;26259;50.214;18.620;2022-07-23T08:41:08;10.80;;;7.43;;
22677;SDS011;26259;50.214;18.620;2022-07-23T08:43:34;13.55;;;7.70;;
22677;SDS011;26259;50.214;18.620;2022-07-23T08:46:01;18.27;;;6.55;;
22677;SDS011;26259;50.214;18.620;2022-07-23T08:48:28;10.43;;;6.88;;
22677;SDS011;26259;50.214;18.620;2022-07-23T08:51:00;8.23;;;7.40;;
22677;SDS011;26259;50.214;18.620;2022-07-23T08:53:26;10.07;;;7.43;;
22677;SDS011;26259;50.214;18.620;2022-07-23T08:55:54;11.13;;;7.38;;
22677;SDS011;26259;50.214;18.620;2022-07-23T08:58:21;13.60;;;8.00;;
22677;SDS011;26259;50.214;18.620;2022-07-23T09:00:48;10.10;;;7.10;;
22677;SDS011;26259;50.214;18.620;2022-07-23T09:03:21;9.23;;;6.72;;
22677;SDS011;26259;50.214;18.620;2022-07-23T09:05:54;9.68;;;6.40;;
22677;SDS011;26259;50.214;18.620;2022-07-23T09:08:22;6.85;;;5.28;;
22677;SDS011;26259;50.214;18.620;2022-07-23T09:15:50;12.85;;;7.07;;
22677;SDS011;26259;50.214;18.620;2022-07-23T09:18:17;8.43;;;6.20;;
22677;SDS011;26259;50.214;18.620;2022-07-23T09:20:43;7.40;;;6.53;;
22677;SDS011;26259;50.214;18.620;2022-07-23T09:23:09;6.30;;;5.63;;
22677;SDS011;26259;50.214;18.620;2022-07-23T09:25:35;8.93;;;6.13;;
22677;SDS011;26259;50.214;18.620;2022-07-23T09:28:00;7.53;;;5.63;;
22677;SDS011;26259;50.214;18.620;2022-07-23T09:30:32;11.68;;;6.05;;
22677;SDS011;26259;50.214;18.620;2022-07-23T09:33:04;10.52;;;5.70;;
22677;SDS011;26259;50.214;18.620;2022-07-23T09:35:50;6.60;;;5.93;;
22677;SDS011;26259;50.214;18.620;2022-07-23T09:38:17;7.32;;;5.80;;
22677;SDS011;26259;50.214;18.620;2022-07-23T09:40:44;8.27;;;5.80;;
22677;SDS011;26259;50.214;18.620;2022-07-23T09:43:11;11.40;;;5.57;;
22677;SDS011;26259;50.214;18.620;2022-07-23T09:45:37;6.15;;;5.55;;
22677;SDS011;26259;50.214;18.620;2022-07-23T09:48:15;11.57;;;5.40;;
22677;SDS011;26259;50.214;18.620;2022-07-23T09:50:42;6.80;;;5.53;;
22677;SDS011;26259;50.214;18.620;2022-07-23T09:53:08;14.18;;;6.38;;
22677;SDS011;26259;50.214;18.620;2022-07-23T09:55:48;6.93;;;6.10;;
22677;SDS011;26259;50.214;18.620;2022-07-23T09:58:14;8.82;;;6.40;;
22677;SDS011;26259;50.214;18.620;2022-07-23T10:00:40;8.23;;;6.63;;
22677;SDS011;26259;50.214;18.620;2022-07-23T10:03:07;10.68;;;6.30;;
22677;SDS011;26259;50.214;18.620;2022-07-23T10:05:35;9.50;;;6.03;;
22677;SDS011;26259;50.214;18.620;2022-07-23T10:08:02;10.88;;;6.63;;
22677;SDS011;26259;50.214;18.620;2022-07-23T10:10:28;11.02;;;5.78;;
22677;SDS011;26259;50.214;18.620;2022-07-23T10:12:55;7.63;;;5.85;;
22677;SDS011;26259;50.214;18.620;2022-07-23T10:15:39;9.27;;;6.45;;
22677;SDS011;26259;50.214;18.620;2022-07-23T10:18:06;9.70;;;5.95;;
22677;SDS011;26259;50.214;18.620;2022-07-23T10:20:34;8.23;;;6.15;;
22677;SDS011;26259;50.214;18.620;2022-07-23T10:23:47;10.35;;;6.03;;
22677;SDS011;26259;50.214;18.620;2022-07-23T10:26:27;8.98;;;5.60;;
22677;SDS011;26259;50.214;18.620;2022-07-23T10:32:02;11.05;;;5.65;;
22677;SDS011;26259;50.214;18.620;2022-07-23T10:40:08;10.00;;;7.32;;
22677;SDS011;26259;50.214;18.620;2022-07-23T10:42:45;15.15;;;6.90;;
22677;SDS011;26259;50.214;18.620;2022-07-23T10:48:11;8.10;;;6.43;;
22677;SDS011;26259;50.214;18.620;2022-07-23T10:50:37;13.48;;;7.40;;
22677;SDS011;26259;50.214;18.620;2022-07-23T10:57:59;14.68;;;6.70;;
22677;SDS011;26259;50.214;18.620;2022-07-23T11:00:30;7.15;;;6.32;;
22677;SDS011;26259;50.214;18.620;2022-07-23T11:03:03;12.73;;;6.22;;
22677;SDS011;26259;50.214;18.620;2022-07-23T11:05:39;8.88;;;6.68;;
22677;SDS011;26259;50.214;18.620;2022-07-23T11:08:15;10.63;;;6.65;;
22677;SDS011;26259;50.214;18.620;2022-07-23T11:13:30;10.85;;;6.63;;
22677;SDS011;26259;50.214;18.620;2022-07-23T11:16:04;12.30;;;6.22;;
22677;SDS011;26259;50.214;18.620;2022-07-23T11:32:07;9.05;;;5.80;;
22677;SDS011;26259;50.214;18.620;2022-07-23T11:34:53;7.95;;;5.60;;
22677;SDS011;26259;50.214;18.620;2022-07-23T11:37:32;8.65;;;5.85;;
22677;SDS011;26259;50.214;18.620;2022-07-23T11:39:59;11.07;;;5.25;;
22677;SDS011;26259;50.214;18.620;2022-07-23T11:42:24;6.03;;;5.50;;
22677;SDS011;26259;50.214;18.620;2022-07-23T11:44:50;6.85;;;5.85;;
22677;SDS011;26259;50.214;18.620;2022-07-23T11:47:21;5.53;;;4.97;;
22677;SDS011;26259;50.214;18.620;2022-07-23T11:49:52;6.30;;;5.70;;
22677;SDS011;26259;50.214;18.620;2022-07-23T11:52:25;7.45;;;5.57;;
22677;SDS011;26259;50.214;18.620;2022-07-23T11:54:52;9.63;;;5.57;;
22677;SDS011;26259;50.214;18.620;2022-07-23T11:57:27;6.00;;;5.40;;
22677;SDS011;26259;50.214;18.620;2022-07-23T11:59:55;8.20;;;5.78;;
22677;SDS011;26259;50.214;18.620;2022-07-23T12:02:22;8.95;;;5.57;;
22677;SDS011;26259;50.214;18.620;2022-07-23T12:04:49;8.45;;;5.55;;
22677;SDS011;26259;50.214;18.620;2022-07-23T12:07:25;13.45;;;6.03;;
22677;SDS011;26259;50.214;18.620;2022-07-23T12:09:57;9.18;;;6.18;;
22677;SDS011;26259;50.214;18.620;2022-07-23T12:12:24;8.00;;;5.70;;
22677;SDS011;26259;50.214;18.620;2022-07-23T12:14:50;7.57;;;6.07;;
22677;SDS011;26259;50.214;18.620;2022-07-23T12:17:17;7.03;;;6.35;;
22677;SDS011;26259;50.214;18.620;2022-07-23T12:19:43;10.13;;;6.47;;
22677;SDS011;26259;50.214;18.620;2022-07-23T12:22:10;9.85;;;6.15;;
22677;SDS011;26259;50.214;18.620;2022-07-23T12:27:21;13.40;;;5.68;;
22677;SDS011;26259;50.214;18.620;2022-07-23T12:29:47;9.05;;;6.63;;
22677;SDS011;26259;50.214;18.620;2022-07-23T12:32:20;9.10;;;5.80;;
22677;SDS011;26259;50.214;18.620;2022-07-23T12:34:50;12.80;;;6.25;;
22677;SDS011;26259;50.214;18.620;2022-07-23T12:37:34;38.72;;;7.20;;
22677;SDS011;26259;50.214;18.620;2022-07-23T12:43:03;15.05;;;6.70;;
22677;SDS011;26259;50.214;18.620;2022-07-23T12:45:41;12.73;;;6.35;;
22677;SDS011;26259;50.214;18.620;2022-07-23T12:53:19;15.00;;;7.00;;
22677;SDS011;26259;50.214;18.620;2022-07-23T12:55:48;11.05;;;6.35;;
22677;SDS011;26259;50.214;18.620;2022-07-23T12:58:16;8.68;;;6.85;;
22677;SDS011;26259;50.214;18.620;2022-07-23T13:00:52;8.85;;;6.38;;
22677;SDS011;26259;50.214;18.620;2022-07-23T13:03:28;10.57;;;6.50;;
22677;SDS011;26259;50.214;18.620;2022-07-23T13:05:54;9.48;;;6.50;;
22677;SDS011;26259;50.214;18.620;2022-07-23T13:08:20;10.20;;;7.05;;
22677;SDS011;26259;50.214;18.620;2022-07-23T13:10:47;11.25;;;6.97;;
22677;SDS011;26259;50.214;18.620;2022-07-23T13:13:14;7.20;;;6.60;;
22677;SDS011;26259;50.214;18.620;2022-07-23T13:15:41;9.70;;;6.53;;
22677;SDS011;26259;50.214;18.620;2022-07-23T13:18:08;12.82;;;7.32;;
22677;SDS011;26259;50.214;18.620;2022-07-23T13:20:34;13.50;;;6.90;;
22677;SDS011;26259;50.214;18.620;2022-07-23T13:23:00;11.38;;;6.07;;
22677;SDS011;26259;50.214;18.620;2022-07-23T13:25:26;8.18;;;6.43;;
22677;SDS011;26259;50.214;18.620;2022-07-23T13:27:52;7.55;;;6.82;;
22677;SDS011;26259;50.214;18.620;2022-07-23T13:30:17;11.65;;;7.43;;
22677;SDS011;26259;50.214;18.620;2022-07-23T13:32:43;7.57;;;6.78;;
22677;SDS011;26259;50.214;18.620;2022-07-23T13:35:08;9.02;;;7.00;;
22677;SDS011;26259;50.214;18.620;2022-07-23T13:37:34;7.57;;;6.28;;
22677;SDS011;26259;50.214;18.620;2022-07-23T13:40:00;8.25;;;6.28;;
22677;SDS011;26259;50.214;18.620;2022-07-23T13:42:26;6.90;;;6.20;;
22677;SDS011;26259;50.214;18.620;2022-07-23T13:44:52;9.77;;;5.90;;
22677;SDS011;26259;50.214;18.620;2022-07-23T13:47:18;7.30;;;6.47;;
22677;SDS011;26259;50.214;18.620;2022-07-23T13:49:43;8.00;;;6.53;;
22677;SDS011;26259;50.214;18.620;2022-07-23T13:52:09;14.35;;;7.55;;
22677;SDS011;26259;50.214;18.620;2022-07-23T13:54:34;14.90;;;6.70;;
22677;SDS011;26259;50.214;18.620;2022-07-23T13:57:00;21.35;;;6.47;;
22677;SDS011;26259;50.214;18.620;2022-07-23T13:59:26;23.77;;;7.53;;
22677;SDS011;26259;50.214;18.620;2022-07-23T14:01:52;18.27;;;6.95;;
22677;SDS011;26259;50.214;18.620;2022-07-23T14:04:18;15.07;;;7.15;;
22677;SDS011;26259;50.214;18.620;2022-07-23T14:06:44;19.90;;;8.73;;
22677;SDS011;26259;50.214;18.620;2022-07-23T14:09:09;17.55;;;7.57;;
22677;SDS011;26259;50.214;18.620;2022-07-23T14:11:35;13.23;;;7.60;;
22677;SDS011;26259;50.214;18.620;2022-07-23T14:14:00;12.52;;;7.53;;
22677;SDS011;26259;50.214;18.620;2022-07-23T14:16:27;19.23;;;8.65;;
22677;SDS011;26259;50.214;18.620;2022-07-23T14:18:53;11.07;;;8.98;;
22677;SDS011;26259;50.214;18.620;2022-07-23T14:21:18;15.95;;;7.75;;
22677;SDS011;26259;50.214;18.620;2022-07-23T14:23:44;10.82;;;7.32;;
22677;SDS011;26259;50.214;18.620;2022-07-23T14:26:09;11.05;;;8.05;;
22677;SDS011;26259;50.214;18.620;2022-07-23T14:28:35;10.20;;;7.05;;
22677;SDS011;26259;50.214;18.620;2022-07-23T14:31:01;15.57;;;8.05;;
22677;SDS011;26259;50.214;18.620;2022-07-23T14:33:26;10.07;;;7.70;;
22677;SDS011;26259;50.214;18.620;2022-07-23T14:35:52;13.52;;;7.65;;
22677;SDS011;26259;50.214;18.620;2022-07-23T14:38:17;10.25;;;7.85;;
22677;SDS011;26259;50.214;18.620;2022-07-23T14:40:43;9.35;;;7.78;;
22677;SDS011;26259;50.214;18.620;2022-07-23T14:43:09;9.65;;;7.68;;
22677;SDS011;26259;50.214;18.620;2022-07-23T14:45:34;11.90;;;7.60;;
22677;SDS011;26259;50.214;18.620;2022-07-23T14:48:00;10.50;;;8.50;;
22677;SDS011;26259;50.214;18.620;2022-07-23T14:50:27;9.48;;;8.48;;
22677;SDS011;26259;50.214;18.620;2022-07-23T14:52:53;9.23;;;8.00;;
22677;SDS011;26259;50.214;18.620;2022-07-23T14:55:19;13.20;;;8.25;;
22677;SDS011;26259;50.214;18.620;2022-07-23T14:57:45;9.30;;;8.10;;
22677;SDS011;26259;50.214;18.620;2022-07-23T15:00:11;12.43;;;8.65;;
22677;SDS011;26259;50.214;18.620;2022-07-23T15:02:37;13.57;;;8.48;;